Time;durP1;ratioP1;P1;durP2;ratioP2;P2;SDS_P1;SDS_P2;PMS_P1;PMS_P2;Temp;Humidity;BMP_temperature;BMP_pressure;BME280_temperature;BME280_humidity;BME280_pressure;Samples;Min_cycle;Max_cycle;Signal;HPM_P1;HPM_P2
2024/04/21 00:00:07;;;;;;;0.50;0.30;;;5.30;88.30;;;;;;4825650;29;20080;-77
2024/04/21 00:02:33;;;;;;;1.00;0.22;;;5.30;88.20;;;;;;4826169;29;20078;-77
2024/04/21 00:04:58;;;;;;;0.65;0.25;;;5.20;88.20;;;;;;4804472;29;20063;-76
2024/04/21 00:07:24;;;;;;;0.95;0.35;;;5.20;88.40;;;;;;4815636;29;20536;-76
2024/04/21 00:09:50;;;;;;;0.40;0.40;;;5.10;88.30;;;;;;4824470;29;20074;-77
2024/04/21 00:12:18;;;;;;;0.75;0.40;;;5.10;88.30;;;;;;4820769;29;20079;-78
2024/04/21 00:14:46;;;;;;;0.75;0.30;;;5.00;88.20;;;;;;4819088;29;20043;-77
2024/04/21 00:17:12;;;;;;;0.95;0.50;;;4.80;88.40;;;;;;4816435;29;20447;-76
2024/04/21 00:19:38;;;;;;;2.58;0.55;;;4.80;88.50;;;;;;4818701;29;20164;-77
2024/04/21 00:22:04;;;;;;;0.20;0.20;;;4.70;88.70;;;;;;4815388;29;20103;-77
2024/04/21 00:24:30;;;;;;;0.40;0.30;;;4.60;88.80;;;;;;4817553;29;20085;-77
2024/04/21 00:26:56;;;;;;;0.75;0.30;;;4.60;89.00;;;;;;4805081;29;20042;-77
2024/04/21 00:29:23;;;;;;;0.20;0.20;;;4.60;89.00;;;;;;4814991;29;20112;-77
2024/04/21 00:31:49;;;;;;;1.90;0.38;;;4.50;89.10;;;;;;4823098;29;20061;-76
2024/04/21 00:34:15;;;;;;;0.52;0.32;;;4.50;89.10;;;;;;4794303;29;20067;-77
2024/04/21 00:36:41;;;;;;;1.27;0.38;;;4.50;89.00;;;;;;4823232;29;20031;-75
2024/04/21 00:39:07;;;;;;;1.45;0.50;;;4.40;89.00;;;;;;4806243;29;20474;-77
2024/04/21 00:41:33;;;;;;;0.63;0.30;;;4.40;89.00;;;;;;4814744;29;20043;-77
2024/04/21 00:43:59;;;;;;;0.40;0.20;;;4.40;89.10;;;;;;4819158;29;20039;-76
2024/04/21 00:46:26;;;;;;;0.60;0.20;;;4.40;89.20;;;;;;4819829;29;20038;-76
2024/04/21 00:48:54;;;;;;;0.32;0.20;;;4.30;89.20;;;;;;4791623;29;20067;-75
2024/04/21 00:51:22;;;;;;;0.88;0.20;;;4.30;89.20;;;;;;4821386;29;20050;-77
2024/04/21 00:53:50;;;;;;;0.20;0.20;;;4.30;89.30;;;;;;4815824;29;20055;-75
2024/04/21 00:56:17;;;;;;;0.28;0.28;;;4.30;89.30;;;;;;4819677;29;20039;-75
2024/04/21 00:58:44;;;;;;;0.20;0.20;;;4.30;89.30;;;;;;4809136;29;20034;-76
2024/04/21 01:01:10;;;;;;;0.95;0.22;;;4.20;89.30;;;;;;4807795;29;20046;-76
2024/04/21 01:03:35;;;;;;;0.63;0.20;;;4.10;89.30;;;;;;4809571;29;20038;-76
2024/04/21 01:06:01;;;;;;;0.30;0.20;;;4.20;89.40;;;;;;4825568;29;20104;-76
2024/04/21 01:08:28;;;;;;;0.57;0.30;;;4.20;89.30;;;;;;4792601;29;20080;-76
2024/04/21 01:10:53;;;;;;;0.10;0.10;;;4.20;89.20;;;;;;4823026;29;20062;-76
2024/04/21 01:13:19;;;;;;;1.67;0.30;;;4.20;89.10;;;;;;4823636;29;20050;-76
2024/04/21 01:15:50;;;;;;;0.85;0.38;;;4.20;89.20;;;;;;4824734;29;20046;-75
2024/04/21 01:18:16;;;;;;;2.40;0.30;;;4.20;89.10;;;;;;4805971;29;20043;-76
2024/04/21 01:20:49;;;;;;;0.20;0.20;;;4.10;89.00;;;;;;4821480;29;20440;-75
2024/04/21 01:23:18;;;;;;;0.10;0.10;;;4.10;89.10;;;;;;4818797;29;20054;-75
2024/04/21 01:25:46;;;;;;;1.05;0.30;;;4.10;89.00;;;;;;4819817;29;20039;-75
2024/04/21 01:28:12;;;;;;;0.85;0.20;;;4.00;89.10;;;;;;4820722;29;20039;-75
2024/04/21 01:30:38;;;;;;;1.17;0.20;;;4.00;89.20;;;;;;4819144;29;20043;-75
2024/04/21 01:33:04;;;;;;;0.43;0.43;;;4.00;89.30;;;;;;4821202;29;20110;-75
2024/04/21 01:35:37;;;;;;;0.75;0.20;;;3.90;89.30;;;;;;4822955;29;20049;-76
2024/04/21 01:38:03;;;;;;;0.55;0.20;;;3.90;89.40;;;;;;4820022;29;20074;-75
2024/04/21 01:40:28;;;;;;;0.82;0.20;;;3.90;89.40;;;;;;4822791;29;20065;-75
2024/04/21 01:42:54;;;;;;;0.10;0.10;;;3.80;89.40;;;;;;4822270;29;20061;-76
2024/04/21 01:45:22;;;;;;;0.10;0.10;;;3.80;89.60;;;;;;4821737;29;20049;-75
2024/04/21 01:47:49;;;;;;;0.52;0.30;;;3.80;89.60;;;;;;4806328;29;20058;-75
2024/04/21 01:50:15;;;;;;;0.25;0.10;;;3.80;89.60;;;;;;4822087;29;20164;-75
2024/04/21 01:52:45;;;;;;;0.10;0.10;;;3.80;89.70;;;;;;4808737;29;20054;-76
2024/04/21 01:55:15;;;;;;;0.10;0.10;;;3.80;90.10;;;;;;4824328;29;20098;-75
2024/04/21 01:57:41;;;;;;;0.38;0.20;;;3.80;89.80;;;;;;4823967;29;20064;-75
2024/04/21 02:00:07;;;;;;;0.52;0.10;;;3.70;89.50;;;;;;4808402;29;20035;-76
2024/04/21 02:02:33;;;;;;;0.10;0.10;;;3.70;89.90;;;;;;4823274;29;20066;-75
2024/04/21 02:05:02;;;;;;;0.10;0.10;;;3.70;89.90;;;;;;4824297;29;20039;-75
2024/04/21 02:07:30;;;;;;;0.10;0.10;;;3.70;90.00;;;;;;4823047;29;20061;-75
2024/04/21 02:09:56;;;;;;;0.45;0.25;;;3.70;90.00;;;;;;4821776;29;20107;-75
2024/04/21 02:12:21;;;;;;;0.10;0.10;;;3.70;90.00;;;;;;4822057;29;20066;-76
2024/04/21 02:14:47;;;;;;;1.40;0.30;;;3.70;90.00;;;;;;4822508;29;20039;-75
2024/04/21 02:17:13;;;;;;;0.10;0.10;;;3.60;90.00;;;;;;4822389;29;20047;-76
2024/04/21 02:19:38;;;;;;;0.32;0.20;;;3.60;90.00;;;;;;4806701;29;20042;-75
2024/04/21 02:22:04;;;;;;;0.08;0.08;;;3.60;90.00;;;;;;4823206;29;20051;-75
2024/04/21 02:24:41;;;;;;;0.25;0.10;;;3.70;90.00;;;;;;4807123;29;20074;-75
2024/04/21 02:27:07;;;;;;;0.57;0.10;;;3.60;90.00;;;;;;4823311;29;20053;-75
2024/04/21 02:29:32;;;;;;;0.28;0.10;;;3.60;90.00;;;;;;4821795;29;20039;-75
2024/04/21 02:31:58;;;;;;;0.10;0.10;;;3.50;90.00;;;;;;4810153;29;20058;-77
2024/04/21 02:34:26;;;;;;;0.13;0.13;;;3.50;90.00;;;;;;4826631;29;20054;-76
2024/04/21 02:36:52;;;;;;;0.10;0.10;;;3.60;90.00;;;;;;4826571;29;20145;-76
2024/04/21 02:39:18;;;;;;;0.45;0.10;;;3.50;90.00;;;;;;4826912;29;20043;-76
2024/04/21 02:41:44;;;;;;;0.43;0.22;;;3.60;90.00;;;;;;4827149;29;20085;-76
2024/04/21 02:44:10;;;;;;;0.10;0.10;;;3.60;90.00;;;;;;4811270;29;20038;-76
2024/04/21 02:46:36;;;;;;;2.08;0.20;;;3.60;90.00;;;;;;4826816;29;20054;-75
2024/04/21 02:49:02;;;;;;;0.93;0.20;;;3.70;90.00;;;;;;4826246;29;20106;-77
2024/04/21 02:51:28;;;;;;;0.15;0.15;;;3.70;89.90;;;;;;4825422;29;20059;-75
2024/04/21 02:53:54;;;;;;;0.60;0.20;;;3.70;89.90;;;;;;4808467;29;20059;-77
2024/04/21 02:56:19;;;;;;;0.10;0.10;;;3.60;89.70;;;;;;4788417;29;20494;-76
2024/04/21 02:58:45;;;;;;;0.20;0.17;;;3.70;89.80;;;;;;4802791;29;20050;-76
2024/04/21 03:01:11;;;;;;;1.00;0.30;;;3.80;89.70;;;;;;4803072;29;20106;-77
2024/04/21 03:03:36;;;;;;;0.35;0.15;;;3.80;89.70;;;;;;4804271;29;20119;-77
2024/04/21 03:06:02;;;;;;;0.10;0.10;;;3.80;89.60;;;;;;4788278;29;20096;-77
2024/04/21 03:08:28;;;;;;;0.10;0.10;;;3.80;89.60;;;;;;4801462;29;20138;-77
2024/04/21 03:10:54;;;;;;;0.10;0.10;;;3.90;89.50;;;;;;4802703;29;20134;-77
2024/04/21 03:13:20;;;;;;;0.25;0.20;;;3.90;89.50;;;;;;4803296;29;20133;-77
2024/04/21 03:15:48;;;;;;;1.73;0.30;;;3.90;89.40;;;;;;4804476;29;20038;-76
2024/04/21 03:18:14;;;;;;;0.10;0.10;;;3.90;89.40;;;;;;4787874;29;20092;-76
2024/04/21 03:20:40;;;;;;;0.63;0.20;;;4.00;89.40;;;;;;4803180;29;20079;-75
2024/04/21 03:23:06;;;;;;;1.60;0.20;;;3.90;89.30;;;;;;4803823;29;20047;-76
2024/04/21 03:25:32;;;;;;;2.17;0.30;;;4.00;89.30;;;;;;4804591;29;20038;-76
2024/04/21 03:28:01;;;;;;;1.45;0.40;;;4.00;89.20;;;;;;4803416;29;20050;-77
2024/04/21 03:30:27;;;;;;;1.65;0.35;;;4.00;89.20;;;;;;4802652;29;20416;-76
2024/04/21 03:32:53;;;;;;;0.55;0.17;;;4.10;89.80;;;;;;4787602;29;20043;-76
2024/04/21 03:35:18;;;;;;;0.20;0.20;;;4.00;89.20;;;;;;4804442;29;20053;-76
2024/04/21 03:37:44;;;;;;;0.10;0.10;;;4.00;89.20;;;;;;4803734;29;20039;-77
2024/04/21 03:40:10;;;;;;;0.32;0.20;;;4.00;89.20;;;;;;4802455;29;20064;-77
2024/04/21 03:42:36;;;;;;;0.68;0.30;;;4.00;89.30;;;;;;4787015;29;20089;-76
2024/04/21 03:45:05;;;;;;;1.50;0.40;;;4.00;89.30;;;;;;4802321;29;20091;-76
2024/04/21 03:47:31;;;;;;;0.22;0.20;;;3.90;89.30;;;;;;4802866;29;20046;-76
2024/04/21 03:49:56;;;;;;;0.40;0.20;;;3.90;89.40;;;;;;4802292;29;20050;-76
2024/04/21 03:52:22;;;;;;;0.68;0.20;;;3.90;89.40;;;;;;4803766;29;20047;-77
2024/04/21 03:54:50;;;;;;;0.10;0.10;;;3.90;89.60;;;;;;4802370;29;20045;-76
2024/04/21 03:57:29;;;;;;;1.55;0.20;;;3.90;89.70;;;;;;4802581;29;20075;-76
2024/04/21 03:59:55;;;;;;;1.20;0.32;;;3.90;89.80;;;;;;4802247;29;20045;-77
2024/04/21 04:02:21;;;;;;;0.50;0.20;;;3.90;89.80;;;;;;4802403;29;20047;-77
2024/04/21 04:04:47;;;;;;;0.75;0.30;;;3.90;89.80;;;;;;4804082;29;20398;-77
2024/04/21 04:07:13;;;;;;;0.22;0.20;;;3.90;89.80;;;;;;4787535;29;20043;-77
2024/04/21 04:09:40;;;;;;;0.28;0.10;;;3.80;89.70;;;;;;4803656;29;20043;-77
2024/04/21 04:12:05;;;;;;;0.10;0.10;;;3.90;89.80;;;;;;4802476;29;20061;-77
2024/04/21 04:14:31;;;;;;;0.20;0.20;;;3.90;89.80;;;;;;4803587;29;20126;-77
2024/04/21 04:16:57;;;;;;;0.32;0.20;;;3.90;89.80;;;;;;4802315;29;20042;-77
2024/04/21 04:19:23;;;;;;;1.33;0.28;;;3.90;89.70;;;;;;4802322;29;20395;-76
2024/04/21 04:21:49;;;;;;;1.10;0.20;;;4.00;89.70;;;;;;4803944;29;20481;-77
2024/04/21 04:24:15;;;;;;;0.10;0.10;;;4.00;90.10;;;;;;4803577;29;20057;-77
2024/04/21 04:26:40;;;;;;;0.40;0.10;;;4.00;89.70;;;;;;4802533;29;20121;-77
2024/04/21 04:29:06;;;;;;;0.10;0.10;;;4.10;89.70;;;;;;4803471;29;20482;-77
2024/04/21 04:31:31;;;;;;;0.98;0.20;;;4.10;89.70;;;;;;4787221;29;20444;-77
2024/04/21 04:33:57;;;;;;;0.15;0.15;;;4.10;89.60;;;;;;4803499;29;20103;-76
2024/04/21 04:36:23;;;;;;;0.10;0.10;;;4.10;89.60;;;;;;4802444;29;20046;-76
2024/04/21 04:38:48;;;;;;;0.10;0.10;;;4.20;89.60;;;;;;4802675;29;20039;-77
2024/04/21 04:41:14;;;;;;;0.30;0.13;;;4.20;89.60;;;;;;4787282;29;20398;-77
2024/04/21 04:43:40;;;;;;;0.10;0.10;;;4.20;89.70;;;;;;4803671;29;20475;-76
2024/04/21 04:46:06;;;;;;;0.10;0.10;;;4.20;89.60;;;;;;4822738;29;20115;-75
2024/04/21 04:48:32;;;;;;;0.15;0.15;;;4.20;89.60;;;;;;4819351;29;20039;-75
2024/04/21 04:50:58;;;;;;;0.10;0.10;;;4.20;89.60;;;;;;4819876;29;20050;-75
2024/04/21 04:53:27;;;;;;;0.10;0.10;;;4.20;89.70;;;;;;4804573;29;20215;-75
2024/04/21 04:55:54;;;;;;;0.08;0.08;;;4.20;89.70;;;;;;4804849;29;20039;-75
2024/04/21 04:58:20;;;;;;;0.10;0.10;;;4.30;89.70;;;;;;4808861;29;20050;-74
2024/04/21 05:00:47;;;;;;;0.25;0.20;;;4.20;89.70;;;;;;4805188;29;20023;-75
2024/04/21 05:03:14;;;;;;;0.30;0.20;;;4.30;89.80;;;;;;4790272;29;20126;-75
2024/04/21 05:05:39;;;;;;;0.20;0.10;;;4.40;89.90;;;;;;4805138;29;20034;-77
2024/04/21 05:08:06;;;;;;;0.22;0.15;;;4.50;89.90;;;;;;4775213;29;20108;-76
2024/04/21 05:10:32;;;;;;;0.10;0.10;;;4.40;89.80;;;;;;4806439;29;20050;-75
2024/04/21 05:12:58;;;;;;;0.20;0.20;;;4.40;89.80;;;;;;4805070;29;20067;-77
2024/04/21 05:15:25;;;;;;;0.10;0.10;;;4.40;89.80;;;;;;4789974;29;20054;-76
2024/04/21 05:17:51;;;;;;;0.10;0.10;;;4.40;89.80;;;;;;4806766;29;20114;-75
2024/04/21 05:20:16;;;;;;;0.00;0.00;;;4.50;89.80;;;;;;4806363;29;20126;-75
2024/04/21 05:22:42;;;;;;;0.10;0.10;;;4.40;89.60;;;;;;4805052;29;20455;-75
2024/04/21 05:25:08;;;;;;;0.70;0.20;;;4.40;89.70;;;;;;4806228;29;20054;-75
2024/04/21 05:27:33;;;;;;;0.25;0.20;;;4.50;89.80;;;;;;4806340;29;20035;-75
2024/04/21 05:29:59;;;;;;;0.50;0.20;;;4.50;89.80;;;;;;4788236;29;20406;-75
2024/04/21 05:32:25;;;;;;;0.10;0.10;;;4.60;89.80;;;;;;4806964;29;20141;-76
2024/04/21 05:34:51;;;;;;;0.10;0.10;;;4.60;89.80;;;;;;4806489;29;20031;-75
2024/04/21 05:37:16;;;;;;;0.10;0.10;;;4.60;89.80;;;;;;4803973;29;20035;-75
2024/04/21 05:39:42;;;;;;;0.10;0.10;;;4.70;89.80;;;;;;4806064;29;20169;-75
2024/04/21 05:42:08;;;;;;;0.50;0.17;;;4.70;89.70;;;;;;4804843;29;20558;-75
2024/04/21 05:44:33;;;;;;;0.20;0.10;;;4.70;89.70;;;;;;4805549;29;20039;-75
2024/04/21 05:46:59;;;;;;;0.35;0.13;;;4.70;89.60;;;;;;4805282;29;20375;-76
2024/04/21 05:49:25;;;;;;;0.10;0.10;;;4.80;89.70;;;;;;4789848;29;20104;-76
2024/04/21 05:51:51;;;;;;;0.30;0.13;;;4.80;89.70;;;;;;4804689;29;20046;-76
2024/04/21 05:54:17;;;;;;;0.28;0.20;;;4.70;89.60;;;;;;4806655;29;20046;-75
2024/04/21 05:56:43;;;;;;;0.13;0.10;;;4.80;89.70;;;;;;4806030;29;20486;-75
2024/04/21 05:59:09;;;;;;;0.20;0.20;;;4.80;89.70;;;;;;4775487;29;20031;-75
2024/04/21 06:01:34;;;;;;;0.80;0.20;;;4.80;89.80;;;;;;4806556;29;20039;-75
2024/04/21 06:04:00;;;;;;;0.10;0.10;;;4.80;89.80;;;;;;4803479;29;20043;-75
2024/04/21 06:06:25;;;;;;;0.10;0.10;;;4.90;89.70;;;;;;4804332;29;20055;-75
2024/04/21 06:08:51;;;;;;;0.13;0.13;;;4.90;89.70;;;;;;4804845;29;20497;-75
2024/04/21 06:11:17;;;;;;;1.48;0.20;;;4.90;89.60;;;;;;4804865;29;20042;-75
2024/04/21 06:13:43;;;;;;;0.10;0.10;;;4.90;89.50;;;;;;4806907;29;20086;-75
2024/04/21 06:16:08;;;;;;;0.15;0.15;;;5.00;89.50;;;;;;4810861;29;20081;-75
2024/04/21 06:18:34;;;;;;;0.77;0.20;;;5.00;89.40;;;;;;4814429;29;20092;-75
2024/04/21 06:20:59;;;;;;;0.30;0.20;;;4.90;89.40;;;;;;4816473;29;20051;-75
2024/04/21 06:23:25;;;;;;;0.25;0.10;;;4.90;89.40;;;;;;4817442;29;20417;-76
2024/04/21 06:25:50;;;;;;;0.32;0.10;;;5.00;89.50;;;;;;4818880;29;20055;-76
2024/04/21 06:28:16;;;;;;;0.10;0.10;;;5.00;89.50;;;;;;4816272;29;20448;-75
2024/04/21 06:30:42;;;;;;;0.45;0.20;;;5.00;89.40;;;;;;4816827;29;20537;-75
2024/04/21 06:33:08;;;;;;;0.10;0.10;;;5.00;89.40;;;;;;4800687;29;20050;-75
2024/04/21 06:35:34;;;;;;;0.17;0.15;;;5.00;89.40;;;;;;4817346;29;20061;-74
2024/04/21 06:37:59;;;;;;;1.00;0.20;;;5.00;89.40;;;;;;4813344;29;20035;-73
2024/04/21 06:40:25;;;;;;;0.30;0.20;;;5.00;89.40;;;;;;4797141;29;20061;-74
2024/04/21 06:42:51;;;;;;;0.52;0.22;;;5.00;89.40;;;;;;4812964;29;20096;-74
2024/04/21 06:45:17;;;;;;;0.10;0.10;;;5.00;89.30;;;;;;4812972;29;20051;-74
2024/04/21 06:47:42;;;;;;;0.10;0.10;;;5.10;89.40;;;;;;4815465;29;20375;-74
2024/04/21 06:50:08;;;;;;;0.17;0.10;;;5.10;89.30;;;;;;4813530;29;20047;-74
2024/04/21 06:52:48;;;;;;;0.10;0.10;;;5.20;89.30;;;;;;4814509;29;20134;-74
2024/04/21 06:55:20;;;;;;;0.10;0.10;;;5.30;89.30;;;;;;4811671;29;20054;-74
2024/04/21 06:57:46;;;;;;;1.55;0.20;;;5.30;89.00;;;;;;4813500;29;20065;-74
2024/04/21 07:00:12;;;;;;;0.55;0.20;;;5.30;88.90;;;;;;4795918;29;20099;-73
2024/04/21 07:02:39;;;;;;;0.10;0.10;;;5.30;88.90;;;;;;4812545;29;20130;-74
2024/04/21 07:05:06;;;;;;;0.30;0.17;;;5.30;88.90;;;;;;4814105;29;20050;-73
2024/04/21 07:07:31;;;;;;;0.13;0.13;;;5.30;88.80;;;;;;4811966;29;20059;-74
2024/04/21 07:09:57;;;;;;;0.50;0.22;;;5.40;88.80;;;;;;4808970;29;20043;-74
2024/04/21 07:12:24;;;;;;;0.10;0.10;;;5.40;88.80;;;;;;4813036;29;20050;-73
2024/04/21 07:14:49;;;;;;;1.77;0.30;;;5.40;88.80;;;;;;4809665;29;20054;-74
2024/04/21 07:17:15;;;;;;;0.50;0.32;;;5.40;88.90;;;;;;4810298;29;20486;-74
2024/04/21 07:19:41;;;;;;;0.40;0.30;;;5.50;88.90;;;;;;4813404;29;20046;-74
2024/04/21 07:22:06;;;;;;;1.55;0.57;;;5.40;88.70;;;;;;4781833;29;20046;-74
2024/04/21 07:24:32;;;;;;;1.17;0.25;;;5.60;88.70;;;;;;4814095;29;20069;-75
2024/04/21 07:26:58;;;;;;;0.20;0.20;;;5.70;88.70;;;;;;4792907;29;20086;-75
2024/04/21 07:29:24;;;;;;;0.55;0.30;;;5.80;88.50;;;;;;4804593;29;20126;-75
2024/04/21 07:31:50;;;;;;;0.82;0.30;;;5.80;88.30;;;;;;4762351;29;20039;-75
2024/04/21 07:34:15;;;;;;;1.80;0.50;;;5.80;88.20;;;;;;4793884;29;20069;-75
2024/04/21 07:36:41;;;;;;;1.45;0.35;;;5.90;88.20;;;;;;4805041;29;20076;-74
2024/04/21 07:39:08;;;;;;;1.77;0.40;;;5.90;88.20;;;;;;4775604;29;20126;-75
2024/04/21 07:41:34;;;;;;;0.60;0.60;;;6.00;88.30;;;;;;4807383;29;20026;-75
2024/04/21 07:44:00;;;;;;;1.40;0.52;;;6.00;88.10;;;;;;4788883;29;20042;-75
2024/04/21 07:46:31;;;;;;;0.30;0.20;;;6.00;88.10;;;;;;4789659;29;20066;-74
2024/04/21 07:48:56;;;;;;;0.35;0.30;;;6.10;88.00;;;;;;4806377;29;20047;-73
2024/04/21 07:51:22;;;;;;;0.85;0.50;;;6.10;87.90;;;;;;4790457;29;20039;-74
2024/04/21 07:53:48;;;;;;;1.25;0.60;;;6.10;87.80;;;;;;4790733;29;20146;-75
2024/04/21 07:56:13;;;;;;;1.83;0.40;;;6.10;87.90;;;;;;4805320;29;20059;-74
2024/04/21 07:58:43;;;;;;;1.55;0.50;;;6.10;88.00;;;;;;4775148;29;20117;-74
2024/04/21 08:01:09;;;;;;;0.68;0.50;;;6.20;88.30;;;;;;4789660;29;20043;-73
2024/04/21 08:03:35;;;;;;;1.95;0.60;;;6.40;88.10;;;;;;4775687;29;20065;-73
2024/04/21 08:06:01;;;;;;;3.25;0.75;;;6.60;87.50;;;;;;4789095;29;20447;-75
2024/04/21 08:08:27;;;;;;;1.10;0.70;;;6.60;87.00;;;;;;4774717;29;20064;-74
2024/04/21 08:10:57;;;;;;;0.52;0.50;;;6.60;86.90;;;;;;4787988;29;20456;-75
2024/04/21 08:13:23;;;;;;;0.93;0.60;;;6.60;87.00;;;;;;4788002;29;20108;-74
2024/04/21 08:16:04;;;;;;;1.23;0.70;;;6.80;87.20;;;;;;4802934;29;20440;-75
2024/04/21 08:18:30;;;;;;;1.00;0.50;;;6.80;86.60;;;;;;4772742;29;20184;-75
2024/04/21 08:20:55;;;;;;;1.27;0.80;;;7.00;86.90;;;;;;4787565;29;20558;-76
2024/04/21 08:23:21;;;;;;;1.35;0.60;;;7.20;86.80;;;;;;4805013;29;20180;-75
2024/04/21 08:25:48;;;;;;;0.50;0.45;;;7.60;86.20;;;;;;4792236;29;20521;-75
2024/04/21 08:28:14;;;;;;;1.15;0.50;;;7.60;85.60;;;;;;4797147;29;20053;-74
2024/04/21 08:30:43;;;;;;;0.40;0.40;;;7.70;85.80;;;;;;4800474;29;20118;-75
2024/04/21 08:33:09;;;;;;;1.20;0.55;;;8.00;85.60;;;;;;4795837;29;20544;-76
2024/04/21 08:35:36;;;;;;;0.63;0.38;;;8.20;85.20;;;;;;4792762;29;20495;-76
2024/04/21 08:38:03;;;;;;;0.93;0.45;;;8.50;84.80;;;;;;4794984;29;20039;-75
2024/04/21 08:40:37;;;;;;;0.40;0.40;;;8.70;84.30;;;;;;4798448;29;20043;-76
2024/04/21 08:43:04;;;;;;;1.30;0.68;;;8.70;83.70;;;;;;4790900;29;20522;-75
2024/04/21 08:45:32;;;;;;;0.50;0.30;;;8.50;84.40;;;;;;4759625;29;20043;-75
2024/04/21 08:47:58;;;;;;;0.38;0.38;;;8.30;84.20;;;;;;4790964;29;20186;-75
2024/04/21 08:50:25;;;;;;;0.57;0.30;;;8.10;84.60;;;;;;4787904;29;20047;-76
2024/04/21 08:52:52;;;;;;;0.82;0.47;;;8.00;85.00;;;;;;4784911;29;20074;-74
2024/04/21 08:55:23;;;;;;;2.33;0.60;;;8.00;85.40;;;;;;4801338;29;20044;-75
2024/04/21 08:57:49;;;;;;;0.30;0.30;;;7.90;85.50;;;;;;4805371;29;20044;-75
2024/04/21 09:00:19;;;;;;;0.40;0.35;;;7.80;86.00;;;;;;4788645;29;20085;-76
2024/04/21 09:02:46;;;;;;;1.65;0.50;;;7.70;85.50;;;;;;4772235;29;20047;-76
2024/04/21 09:05:13;;;;;;;0.38;0.30;;;7.80;85.80;;;;;;4791314;29;20039;-77
2024/04/21 09:07:41;;;;;;;0.45;0.35;;;7.80;85.90;;;;;;4773292;29;20050;-75
2024/04/21 09:10:07;;;;;;;0.73;0.40;;;8.00;85.90;;;;;;4799333;29;20056;-76
2024/04/21 09:12:35;;;;;;;0.30;0.30;;;8.20;85.40;;;;;;4815485;29;20050;-75
2024/04/21 09:15:11;;;;;;;1.20;0.40;;;8.40;85.30;;;;;;4792274;30;20062;-76
2024/04/21 09:17:37;;;;;;;1.13;0.40;;;8.40;84.60;;;;;;4774304;30;20451;-76
2024/04/21 09:20:04;;;;;;;0.40;0.40;;;8.50;84.60;;;;;;4786796;30;20040;-75
2024/04/21 09:22:30;;;;;;;0.30;0.30;;;8.60;84.60;;;;;;4772419;30;20066;-76
2024/04/21 09:24:56;;;;;;;0.28;0.28;;;8.50;84.50;;;;;;4786374;30;20418;-77
2024/04/21 09:27:28;;;;;;;0.47;0.47;;;8.50;84.50;;;;;;4802984;30;20051;-74
2024/04/21 09:29:57;;;;;;;0.47;0.43;;;8.60;84.50;;;;;;4774757;30;20052;-74
2024/04/21 09:32:26;;;;;;;0.45;0.45;;;8.70;84.60;;;;;;4786909;30;20067;-76
2024/04/21 09:34:54;;;;;;;0.50;0.40;;;9.00;84.30;;;;;;4788305;30;20043;-77
2024/04/21 09:37:26;;;;;;;0.73;0.50;;;9.20;83.70;;;;;;4791324;30;20054;-77
2024/04/21 09:39:55;;;;;;;0.70;0.40;;;9.50;83.30;;;;;;4784060;30;20090;-77
2024/04/21 09:42:23;;;;;;;0.52;0.40;;;9.90;82.90;;;;;;4763247;30;20039;-75
2024/04/21 09:44:49;;;;;;;0.30;0.30;;;10.00;82.50;;;;;;4767854;30;20055;-77
2024/04/21 09:47:17;;;;;;;0.60;0.35;;;10.10;82.30;;;;;;4776305;30;20044;-75
2024/04/21 09:49:46;;;;;;;0.50;0.30;;;10.20;82.10;;;;;;4785198;30;20531;-76
2024/04/21 09:52:14;;;;;;;0.52;0.30;;;10.20;82.00;;;;;;4768201;30;20063;-76
2024/04/21 09:54:43;;;;;;;0.85;0.40;;;10.20;81.90;;;;;;4785668;30;20138;-76
2024/04/21 09:57:11;;;;;;;0.52;0.35;;;10.30;82.00;;;;;;4782059;30;20040;-76
2024/04/21 09:59:38;;;;;;;0.40;0.40;;;10.30;81.80;;;;;;4777524;30;20075;-75
2024/04/21 10:02:22;;;;;;;0.50;0.50;;;10.30;81.80;;;;;;4767910;30;20040;-75
2024/04/21 10:04:58;;;;;;;0.30;0.30;;;10.20;82.00;;;;;;4766790;30;20044;-75
2024/04/21 10:07:25;;;;;;;0.88;0.50;;;10.30;82.20;;;;;;4767400;30;20440;-75
2024/04/21 10:09:52;;;;;;;0.43;0.40;;;10.30;82.30;;;;;;4767339;30;20431;-75
2024/04/21 10:12:19;;;;;;;0.52;0.50;;;10.40;82.20;;;;;;4770286;29;20499;-74
2024/04/21 10:14:47;;;;;;;1.02;0.60;;;10.50;81.80;;;;;;4804295;29;20063;-75
2024/04/21 10:17:13;;;;;;;0.20;0.20;;;10.60;81.80;;;;;;4805219;29;20035;-74
2024/04/21 10:19:39;;;;;;;0.40;0.40;;;10.70;81.60;;;;;;4788933;29;20027;-75
2024/04/21 10:22:05;;;;;;;0.30;0.30;;;10.60;81.40;;;;;;4788807;29;20525;-75
2024/04/21 10:24:31;;;;;;;0.40;0.40;;;10.50;81.60;;;;;;4788962;29;20035;-74
2024/04/21 10:26:59;;;;;;;0.50;0.50;;;10.40;81.80;;;;;;4804523;29;20466;-73
2024/04/21 10:29:29;;;;;;;0.40;0.40;;;10.30;81.80;;;;;;4805480;29;20051;-74
2024/04/21 10:31:54;;;;;;;1.13;0.45;;;10.30;82.00;;;;;;4805219;29;20046;-74
2024/04/21 10:34:20;;;;;;;1.30;0.52;;;10.30;82.20;;;;;;4789643;29;20425;-74
2024/04/21 10:36:47;;;;;;;0.40;0.40;;;10.30;82.00;;;;;;4806820;29;20078;-74
2024/04/21 10:39:29;;;;;;;0.50;0.50;;;10.30;81.90;;;;;;4789115;29;20095;-74
2024/04/21 10:42:00;;;;;;;0.40;0.40;;;10.20;81.80;;;;;;4805745;29;20428;-74
2024/04/21 10:44:26;;;;;;;0.40;0.40;;;10.40;81.90;;;;;;4806373;29;20370;-74
2024/04/21 10:46:52;;;;;;;0.40;0.40;;;10.50;81.60;;;;;;4804866;29;20034;-74
2024/04/21 10:49:18;;;;;;;0.57;0.57;;;10.60;81.20;;;;;;4805413;29;20096;-73
2024/04/21 10:51:44;;;;;;;0.68;0.60;;;10.70;80.70;;;;;;4790678;29;20039;-73
2024/04/21 10:54:11;;;;;;;0.75;0.47;;;10.70;80.40;;;;;;4806301;29;20494;-74
2024/04/21 10:56:38;;;;;;;0.60;0.60;;;10.60;80.50;;;;;;4806549;29;20042;-74
2024/04/21 10:59:05;;;;;;;0.50;0.43;;;10.60;81.00;;;;;;4819101;29;20063;-75
2024/04/21 11:01:32;;;;;;;0.50;0.50;;;10.50;80.50;;;;;;4799135;29;20039;-75
2024/04/21 11:03:58;;;;;;;0.43;0.43;;;10.40;80.60;;;;;;4788318;29;20119;-75
2024/04/21 11:06:25;;;;;;;0.30;0.30;;;10.40;80.60;;;;;;4798965;29;20027;-75
2024/04/21 11:08:51;;;;;;;0.38;0.38;;;10.50;80.70;;;;;;4807996;29;20043;-74
2024/04/21 11:11:17;;;;;;;0.57;0.40;;;10.40;80.70;;;;;;4808357;29;20547;-75
2024/04/21 11:13:42;;;;;;;0.40;0.40;;;10.30;81.30;;;;;;4789623;29;20114;-74
2024/04/21 11:16:12;;;;;;;0.40;0.40;;;10.30;80.90;;;;;;4777494;29;20490;-75
2024/04/21 11:18:42;;;;;;;0.50;0.40;;;10.30;80.80;;;;;;4774283;29;20043;-77
2024/04/21 11:21:07;;;;;;;0.60;0.50;;;10.30;80.40;;;;;;4791296;29;20336;-75
2024/04/21 11:23:39;;;;;;;0.50;0.50;;;10.30;80.30;;;;;;4806133;29;20053;-74
2024/04/21 11:26:07;;;;;;;;;;;10.30;80.20;;;;;;4810975;29;20043;-75
2024/04/21 11:28:33;;;;;;;0.38;0.38;;;10.20;80.50;;;;;;4803315;29;19915;-75
2024/04/21 11:31:04;;;;;;;0.40;0.40;;;10.30;80.60;;;;;;4805168;29;20050;-75
2024/04/21 11:33:34;;;;;;;0.40;0.40;;;10.50;80.20;;;;;;4804209;29;20115;-75
2024/04/21 11:36:02;;;;;;;0.40;0.40;;;10.70;79.60;;;;;;4804633;29;20043;-75
2024/04/21 11:38:29;;;;;;;0.30;0.30;;;10.90;79.30;;;;;;4802988;29;20045;-75
2024/04/21 11:40:56;;;;;;;0.38;0.38;;;11.10;78.80;;;;;;4802935;29;20053;-74
2024/04/21 11:43:22;;;;;;;0.55;0.50;;;11.20;77.90;;;;;;4803132;29;20050;-74
2024/04/21 11:45:47;;;;;;;0.40;0.40;;;11.20;77.50;;;;;;4803267;29;20038;-75
2024/04/21 11:48:16;;;;;;;0.35;0.35;;;11.10;77.60;;;;;;4809315;29;20035;-75
2024/04/21 11:50:42;;;;;;;0.47;0.47;;;11.00;77.80;;;;;;4789715;29;20043;-74
2024/04/21 11:53:08;;;;;;;0.60;0.50;;;11.00;77.90;;;;;;4797796;29;20053;-77
2024/04/21 11:55:34;;;;;;;0.38;0.35;;;11.00;78.10;;;;;;4804553;29;20039;-76
2024/04/21 11:58:00;;;;;;;0.32;0.32;;;11.40;78.00;;;;;;4813991;29;20055;-77
2024/04/21 12:00:26;;;;;;;0.70;0.50;;;11.40;77.40;;;;;;4812341;29;20049;-76
2024/04/21 12:02:57;;;;;;;0.35;0.35;;;11.60;77.00;;;;;;4805981;29;20058;-76
2024/04/21 12:05:23;;;;;;;;;;;11.60;76.60;;;;;;4792421;29;20042;-77
2024/04/21 12:07:48;;;;;;;0.70;0.47;;;11.40;76.80;;;;;;4805484;29;19917;-76
2024/04/21 12:10:15;;;;;;;0.82;0.55;;;11.20;77.00;;;;;;4802376;29;20064;-77
2024/04/21 12:12:42;;;;;;;0.40;0.40;;;11.00;77.20;;;;;;4808566;29;20066;-78
2024/04/21 12:15:08;;;;;;;1.05;0.50;;;10.80;77.50;;;;;;4804368;29;20117;-76
2024/04/21 12:17:35;;;;;;;0.20;0.20;;;10.80;77.80;;;;;;4791225;29;20102;-77
2024/04/21 12:20:01;;;;;;;0.82;0.40;;;10.80;77.90;;;;;;4812733;29;20039;-76
2024/04/21 12:22:27;;;;;;;0.45;0.40;;;10.80;77.90;;;;;;4822235;29;20058;-75
2024/04/21 12:24:53;;;;;;;0.40;0.40;;;10.80;77.90;;;;;;4817197;29;20509;-75
2024/04/21 12:27:19;;;;;;;0.30;0.30;;;10.90;77.80;;;;;;4804484;29;20070;-75
2024/04/21 12:30:05;;;;;;;0.30;0.30;;;11.10;77.40;;;;;;4792787;29;20099;-75
2024/04/21 12:32:31;;;;;;;0.38;0.38;;;11.20;76.90;;;;;;4804822;29;20061;-74
2024/04/21 12:34:57;;;;;;;0.30;0.30;;;11.20;76.50;;;;;;4802388;29;20031;-76
2024/04/21 12:37:24;;;;;;;0.30;0.30;;;11.20;76.40;;;;;;4807764;29;20039;-75
2024/04/21 12:39:56;;;;;;;0.30;0.30;;;11.20;76.50;;;;;;4802304;29;20130;-75
2024/04/21 12:42:22;;;;;;;0.40;0.40;;;11.20;76.30;;;;;;4787835;29;20055;-75
2024/04/21 12:44:48;;;;;;;0.45;0.30;;;11.20;76.10;;;;;;4778652;29;20063;-74
2024/04/21 12:47:16;;;;;;;0.40;0.40;;;11.20;76.10;;;;;;4782126;29;20636;-75
2024/04/21 12:49:42;;;;;;;0.22;0.22;;;11.20;76.10;;;;;;4796818;29;20039;-75
2024/04/21 12:52:07;;;;;;;0.30;0.30;;;11.30;76.10;;;;;;4806935;29;20456;-75